Portada
METAR-TAF:

METAR-TAF

Aeroports :

Aeroport Internacional de Palanga

Palanga, Lituània

latitud: 55-55-12N, longitud: 021-03E, altitud: 10 m

Observació

L'informe es va fer fa 21 minuts, a les 10:50 UTC
Vent 9 kt del Est/Nord-Est, variant entre Nord/Nord-Est i Est/Sud-Est
Temperatura 17°C
Humitat 42%
Pressió 1008 hPa
Visibilitat 10 km o més
sense núvols per sota de 1500 mi sense presència de cumulonimbus.

METAR: EYPA 031050Z 06009KT 030V110 CAVOK 17/04 Q1008

Hora: 14:11 (11:11 UTC)

Pronòstic

L'informe es va fer fa 6 hores i 1 minuts, a les 05:10 UTC
Pronòstic vàlid del 03 a les 06 UTC al 04 a les 06 UTC
Vent 10 kt del Est/Nord-Est
Visibilitat: 9000 m
Cel ennuvolat a una alçada de 2500 ft
Temporalment
l' 03 a les 08 UTC al 03 a les 12 UTC
Núvols disperses a una alçada de 2000 ft, Cumulonimbus.

TAF: EYPA 030510Z 0306/0406 07010KT 9000 BKN025 TEMPO 0308/0312 SCT020CB

Observacions i pronòstics meteorològics de més de 4000 aeroports (METAR i TAF).

Les estacions disponibles són els punts grocs i vermells al mapa.

Posi el ratolí al punt desitjat per veure el nom de l'estació.

Feu clic per veure les observacions i els pronòstics meteorològics.

Per canviar el mapa: feu clic els botons verds amb una creu de color negre per apropar; al botó verd amb un guió per allunyar la imatge; o en les fletxes verdes per a mapes adjacents.


METAR-TAF: